createdAt,value
2022-08-27T00:00:52.287Z,9.20
2022-08-27T00:05:54.765Z,10.18
2022-08-27T00:10:57.517Z,9.23
2022-08-27T00:15:59.987Z,10.27
2022-08-27T00:21:03.953Z,9.45
2022-08-27T00:26:10.604Z,9.43
2022-08-27T00:31:13.840Z,10.70
2022-08-27T00:36:16.175Z,10.52
2022-08-27T00:41:20.304Z,9.77
2022-08-27T00:46:38.898Z,11.38
2022-08-27T00:51:41.764Z,10.65
2022-08-27T00:56:50.640Z,9.43
2022-08-27T01:02:13.232Z,10.55
2022-08-27T01:07:16.012Z,10.68
2022-08-27T01:12:18.687Z,10.55
2022-08-27T01:17:21.147Z,12.45
2022-08-27T01:22:26.410Z,10.88
2022-08-27T01:27:31.812Z,11.60
2022-08-27T01:32:35.981Z,11.25
2022-08-27T01:37:38.942Z,10.88
2022-08-27T01:42:44.329Z,10.90
2022-08-27T01:47:47.477Z,11.60
2022-08-27T01:52:51.392Z,11.10
2022-08-27T01:57:54.869Z,11.93
2022-08-27T02:02:58.936Z,10.87
2022-08-27T02:08:02.094Z,11.10
2022-08-27T02:13:08.246Z,10.90
2022-08-27T02:18:11.798Z,12.55
2022-08-27T02:23:15.756Z,11.60
2022-08-27T02:28:18.285Z,12.50
2022-08-27T02:33:20.672Z,11.57
2022-08-27T02:38:24.872Z,11.93
2022-08-27T02:43:29.091Z,12.60
2022-08-27T02:48:31.685Z,11.10
2022-08-27T02:53:36.007Z,10.37
2022-08-27T02:58:38.927Z,11.47
2022-08-27T03:03:41.900Z,11.73
2022-08-27T03:08:52.800Z,11.50
2022-08-27T03:13:56.288Z,12.55
2022-08-27T03:18:58.687Z,11.97
2022-08-27T03:24:11.092Z,11.43
2022-08-27T03:29:14.285Z,11.97
2022-08-27T03:34:19.751Z,12.93
2022-08-27T03:39:22.307Z,13.60
2022-08-27T03:44:24.959Z,11.83
2022-08-27T03:49:27.534Z,12.43
2022-08-27T03:54:31.306Z,12.23
2022-08-27T03:59:34.011Z,11.70
2022-08-27T04:04:36.697Z,12.10
2022-08-27T04:09:39.204Z,11.47
2022-08-27T04:14:41.620Z,13.13
2022-08-27T04:19:44.082Z,11.87
2022-08-27T04:24:47.019Z,11.80
2022-08-27T04:29:49.604Z,12.63
2022-08-27T04:34:55.690Z,12.38
2022-08-27T04:39:58.393Z,11.60
2022-08-27T04:45:00.879Z,12.95
2022-08-27T04:50:05.617Z,12.10
2022-08-27T04:55:08.891Z,11.98
2022-08-27T05:00:11.864Z,13.30
2022-08-27T05:05:16.046Z,13.63
2022-08-27T05:10:18.739Z,12.70
2022-08-27T05:15:21.881Z,11.65
2022-08-27T05:20:24.242Z,12.90
2022-08-27T05:25:27.742Z,12.30
2022-08-27T05:30:30.396Z,12.77
2022-08-27T05:35:33.659Z,12.38
2022-08-27T05:40:36.958Z,12.53
2022-08-27T05:45:44.760Z,12.73
2022-08-27T05:50:47.351Z,13.88
2022-08-27T05:55:49.827Z,14.20
2022-08-27T06:01:10.358Z,14.38
2022-08-27T06:06:13.053Z,14.02
2022-08-27T06:11:15.557Z,15.00
2022-08-27T06:16:19.924Z,14.40
2022-08-27T06:21:24.580Z,12.18
2022-08-27T06:26:28.081Z,12.77
2022-08-27T06:31:30.787Z,12.35
2022-08-27T06:36:35.961Z,11.80
2022-08-27T06:41:38.708Z,11.15
2022-08-27T06:46:47.217Z,11.68
2022-08-27T06:51:50.258Z,11.57
2022-08-27T06:56:52.505Z,11.90
2022-08-27T07:01:55.013Z,11.88
2022-08-27T07:06:57.520Z,10.38
2022-08-27T07:12:01.037Z,10.77
2022-08-27T07:17:03.643Z,11.93
2022-08-27T07:22:06.104Z,11.32
2022-08-27T07:27:08.588Z,11.88
2022-08-27T07:32:11.109Z,10.32
2022-08-27T07:37:14.630Z,10.52
2022-08-27T07:42:35.606Z,11.70
2022-08-27T07:47:38.041Z,9.30
2022-08-27T07:52:41.751Z,10.18
2022-08-27T07:57:45.399Z,9.50
2022-08-27T08:02:48.886Z,9.65
2022-08-27T08:07:52.165Z,11.02
2022-08-27T08:12:54.596Z,10.23
2022-08-27T08:17:57.041Z,9.95
2022-08-27T08:22:59.479Z,9.35
2022-08-27T08:28:01.951Z,10.25
2022-08-27T08:33:04.606Z,9.18
2022-08-27T08:38:07.146Z,9.23
2022-08-27T08:43:29.932Z,9.75
2022-08-27T08:48:32.481Z,9.82
2022-08-27T08:53:44.591Z,10.70
2022-08-27T08:58:57.573Z,9.05
2022-08-27T09:04:05.031Z,8.13
2022-08-27T09:09:16.528Z,8.77
2022-08-27T09:14:38.466Z,8.45
2022-08-27T09:19:41.637Z,8.50
2022-08-27T09:25:11.721Z,8.95
2022-08-27T09:30:43.111Z,9.10
2022-08-27T09:35:46.994Z,8.65
2022-08-27T09:40:52.352Z,8.75
2022-08-27T09:46:07.705Z,9.40
2022-08-27T09:51:13.861Z,9.90
2022-08-27T09:56:32.119Z,10.30
2022-08-27T10:01:51.803Z,8.30
2022-08-27T10:06:54.794Z,8.70
2022-08-27T10:12:05.499Z,9.60
2022-08-27T10:17:44.791Z,8.60
2022-08-27T10:22:47.261Z,9.88
2022-08-27T10:28:10.165Z,10.18
2022-08-27T10:33:12.726Z,10.30
2022-08-27T10:38:30.594Z,11.30
2022-08-27T10:43:59.186Z,11.50
2022-08-27T10:49:34.319Z,11.02
2022-08-27T10:54:51.507Z,12.32
2022-08-27T11:00:17.221Z,10.30
2022-08-27T11:05:23.584Z,10.40
2022-08-27T11:10:30.575Z,10.80
2022-08-27T11:15:40.288Z,11.20
2022-08-27T11:20:54.025Z,10.57
2022-08-27T11:26:04.056Z,11.50
2022-08-27T11:31:22.056Z,11.90
2022-08-27T11:36:54.619Z,11.27
2022-08-27T11:42:13.246Z,11.18
2022-08-27T11:47:24.887Z,11.48
2022-08-27T11:52:37.942Z,12.82
2022-08-27T11:57:41.060Z,13.23
2022-08-27T12:02:44.654Z,11.93
2022-08-27T12:07:51.721Z,11.10
2022-08-27T12:12:57.876Z,10.20
2022-08-27T12:18:12.254Z,12.13
2022-08-27T12:23:42.880Z,10.48
2022-08-27T12:28:45.358Z,12.00
2022-08-27T12:33:54.039Z,10.43
2022-08-27T12:38:59.327Z,7.10
2022-08-27T12:44:04.919Z,12.93
2022-08-27T12:49:37.022Z,12.52
2022-08-27T12:55:24.178Z,12.90
2022-08-27T13:00:36.067Z,12.10
2022-08-27T13:05:46.080Z,11.18
2022-08-27T13:10:48.984Z,13.30
2022-08-27T13:15:55.775Z,11.82
2022-08-27T13:21:25.153Z,12.45
2022-08-27T13:26:34.073Z,11.95
2022-08-27T13:31:38.106Z,11.48
2022-08-27T13:36:56.093Z,13.63
2022-08-27T13:42:00.790Z,12.45
2022-08-27T13:47:11.598Z,12.00
2022-08-27T13:52:30.812Z,12.55
2022-08-27T13:57:43.702Z,11.85
2022-08-27T14:02:55.992Z,9.25
2022-08-27T14:08:15.714Z,11.95
2022-08-27T14:13:18.190Z,11.70
2022-08-27T14:18:36.810Z,12.20
2022-08-27T14:23:46.430Z,11.82
2022-08-27T14:28:48.889Z,11.95
2022-08-27T14:33:54.202Z,11.32
2022-08-27T14:38:56.842Z,12.57
2022-08-27T14:43:59.333Z,12.05
2022-08-27T14:49:07.995Z,12.43
2022-08-27T14:54:10.430Z,12.13
2022-08-27T14:59:12.841Z,12.13
2022-08-27T15:04:15.765Z,12.02
2022-08-27T15:09:19.152Z,12.43
2022-08-27T15:14:26.847Z,12.45
2022-08-27T15:19:29.936Z,12.70
2022-08-27T15:24:43.069Z,13.63
2022-08-27T15:29:47.633Z,12.77
2022-08-27T15:34:50.052Z,12.55
2022-08-27T15:39:53.821Z,12.38
2022-08-27T15:44:57.095Z,12.30
2022-08-27T15:49:59.899Z,12.75
2022-08-27T15:55:02.903Z,12.27
2022-08-27T16:00:05.978Z,12.05
2022-08-27T16:05:09.607Z,13.50
2022-08-27T16:10:12.656Z,12.63
2022-08-27T16:15:15.636Z,12.32
2022-08-27T16:20:18.167Z,13.00
2022-08-27T16:25:23.436Z,13.10
2022-08-27T16:30:26.928Z,12.40
2022-08-27T16:35:29.716Z,12.15
2022-08-27T16:40:38.486Z,11.73
2022-08-27T16:45:41.055Z,11.63
2022-08-27T16:50:43.486Z,6.82
2022-08-27T16:55:48.312Z,7.03
2022-08-27T17:00:53.753Z,9.27
2022-08-27T17:05:56.936Z,6.38
2022-08-27T17:10:59.518Z,6.15
2022-08-27T17:16:02.216Z,9.70
2022-08-27T17:21:05.429Z,7.47
2022-08-27T17:26:10.385Z,10.38
2022-08-27T17:31:27.965Z,8.88
2022-08-27T17:36:31.770Z,8.80
2022-08-27T17:41:39.439Z,10.63
2022-08-27T17:46:42.230Z,16.70
2022-08-27T17:51:46.327Z,14.13
2022-08-27T17:56:51.339Z,15.35
2022-08-27T18:01:54.164Z,15.77
2022-08-27T18:06:56.782Z,14.75
2022-08-27T18:11:59.573Z,15.90
2022-08-27T18:17:02.264Z,15.50
2022-08-27T18:22:05.162Z,14.80
2022-08-27T18:27:07.826Z,17.70
2022-08-27T18:32:10.311Z,17.75
2022-08-27T18:37:12.732Z,18.02
2022-08-27T18:42:15.230Z,17.45
2022-08-27T18:47:17.704Z,16.50
2022-08-27T18:52:22.463Z,15.90
2022-08-27T18:57:24.955Z,15.18
2022-08-27T19:02:28.506Z,17.20
2022-08-27T19:07:32.294Z,14.10
2022-08-27T19:12:34.802Z,12.77
2022-08-27T19:17:41.677Z,13.32
2022-08-27T19:22:44.579Z,12.85
2022-08-27T19:27:47.746Z,13.98
2022-08-27T19:32:54.754Z,13.65
2022-08-27T19:37:57.646Z,14.05
2022-08-27T19:43:01.813Z,14.25
2022-08-27T19:48:04.621Z,15.82
2022-08-27T19:53:07.330Z,16.45
2022-08-27T19:58:09.970Z,15.88
2022-08-27T20:03:12.542Z,15.43
2022-08-27T20:08:15.136Z,16.15
2022-08-27T20:13:18.048Z,17.92
2022-08-27T20:18:22.365Z,20.95
2022-08-27T20:23:25.135Z,20.42
2022-08-27T20:28:43.490Z,21.90
2022-08-27T20:33:46.903Z,27.80
2022-08-27T20:38:49.769Z,27.67
2022-08-27T20:43:52.381Z,16.52
2022-08-27T20:48:56.710Z,14.63
2022-08-27T20:53:59.177Z,14.68
2022-08-27T20:59:20.341Z,16.55
2022-08-27T21:04:22.816Z,17.63
2022-08-27T21:09:25.388Z,19.02
2022-08-27T21:14:27.975Z,18.90
2022-08-27T21:19:30.324Z,19.40
2022-08-27T21:24:33.988Z,19.25
2022-08-27T21:29:36.885Z,20.83
2022-08-27T21:34:40.178Z,20.63
2022-08-27T21:39:43.908Z,20.33
2022-08-27T21:44:47.596Z,20.58
2022-08-27T21:49:50.196Z,21.50
2022-08-27T21:54:52.591Z,24.23
2022-08-27T21:59:55.375Z,22.75
2022-08-27T22:04:57.796Z,22.77
2022-08-27T22:10:00.483Z,21.55
2022-08-27T22:15:03.709Z,23.27
2022-08-27T22:20:08.931Z,22.55
2022-08-27T22:25:11.356Z,21.58
2022-08-27T22:30:14.827Z,21.25
2022-08-27T22:35:18.061Z,21.20
2022-08-27T22:40:22.956Z,20.77
2022-08-27T22:45:26.681Z,20.67
2022-08-27T22:50:29.096Z,21.50
2022-08-27T22:55:31.589Z,21.75
2022-08-27T23:00:39.016Z,21.55
2022-08-27T23:05:42.208Z,20.83
2022-08-27T23:10:44.812Z,21.35
2022-08-27T23:15:47.665Z,20.20
2022-08-27T23:20:50.144Z,20.92
2022-08-27T23:26:11.216Z,21.65
2022-08-27T23:31:14.133Z,22.20
2022-08-27T23:36:16.621Z,22.45
2022-08-27T23:41:19.246Z,21.58
2022-08-27T23:46:21.756Z,23.05
2022-08-27T23:51:24.280Z,21.65
2022-08-27T23:56:30.265Z,22.58
